Pagina principale
METAR-TAF:

METAR-TAF

Aeroporti :

Gaziantep, Turchia

latitudine: 37-05N, longitudine: 037-22E, altezza: 701 m

Osservazione

Il bollettino è stato emesso 38 minuti fa, alle 13:20 UTC
Vento 2 kt da direzioni variabili
Temperature 26°C
Umidità 34%
Pressione 1017 hPa
Visibilità 10 km o più
nessuna nube inferiore a 1500 m e nessun cumulonembo

METAR: LTAJ 261320Z VRB02KT CAVOK 26/09 Q1017 NOSIG RMK RWY10 VRB03KT

Ora: 16:58 (13:58 UTC)

Previsione

Il bollettino è stato emesso 3 ore e 18 minuti fa, alle 10:40 UTC
Previsione valida dal 26 alle 12 UTC al 27 alle 12 UTC
Vento 2 kt da direzioni variabili
Visibilità 10 km o più
nessuna nube inferiore a 1500 m e nessun cumulonembo

TAF: LTAJ 261040Z 2612/2712 VRB02KT CAVOK

Osservazioni e previsioni meteorologiche di più di 4000 aeroporti (messaggi METAR e TAF).

Le stazioni disponibili sono rappresentate dai dischi gialli e rossi sulla carta.

Puntare il mouse per vedere il nome della stazione.

Clicca sopra per visualizzare le osservazioni e previsioni meteorologiche.

Per cambiare la mappa : fare clic sui pulsanti verdi con una croce nera per ingrandire, il pulsante verde con un trattino per diminuire, o sulla freccia verde per le mappe adiacenti.


METAR-TAF: